»·PEaware :: N1873K KRAL-KSMX

N1873K :: KRAL-KSMX

FLIGHT INFORMATION

Flight Status: Arrived
Operator: Privately registered:
United States
More flights under this callsign
Pilot: John H. (10732)
Aircraft: BEECH AIRCRAFT DUKE
(BE60)
More flights by this aircraft type
Origin: KRAL Riverside Mun
United States
Destination: KSMX Santa Maria Pub/Capt Hancock
United States
More flights between these airports :: More routes between these airports
Route: PDZ V186 RZS GVO
File this flight plan on PilotEdge
Remarks:
Altitude:
(Current/Filed)
20,000ft
Speed:
(Current/Filed)
220kts
Departed: 30-May-19 04:51 PM
Arrived: 30-May-19 05:47 PM
Distance/Time
Traveled:
159nm/0:55
Distance/Time
To Go:
Arrived

Flight Plot

Page will automatically refresh every two minutes.

Flight plan parsing failed; only flown route is shown


Map Options




Map Legend


Flown Route
Filed Route
Departure Airport
Arrival Airport
Navaid (VOR, NDB)
Fix

Horizontal Profiles

Position Reports

Time Latitude Longitude Heading Altitude Ground
Speed
30-May-19 16:41 33.950879 -117.444114 223 770ft 0kts
30-May-19 16:42 33.950879 -117.444114 223 770ft 0kts
30-May-19 16:43 33.950879 -117.444114 223 770ft 0kts
30-May-19 16:44 33.950879 -117.444114 223 770ft 0kts
30-May-19 16:45 33.950879 -117.444114 223 770ft 0kts
30-May-19 16:46 33.950879 -117.444114 223 770ft 0kts
30-May-19 16:47 33.951019 -117.444144 46 770ft 7kts
30-May-19 16:48 33.950667 -117.439210 103 770ft 14kts
30-May-19 16:49 33.950045 -117.434962 29 770ft 0kts
30-May-19 16:50 33.951104 -117.437575 282 770ft 62kts
30-May-19 16:51 33.960291 -117.477576 280 1534ft 152kts
30-May-19 16:52 33.959645 -117.521750 195 3109ft 135kts
30-May-19 16:53 33.927291 -117.531151 225 4640ft 110kts
30-May-19 16:54 33.930428 -117.568491 287 5901ft 142kts
30-May-19 16:55 33.948023 -117.616774 289 7156ft 169kts
30-May-19 16:56 33.967052 -117.669274 290 8621ft 172kts
30-May-19 16:57 33.985978 -117.722798 290 10123ft 175kts
30-May-19 16:58 34.004333 -117.776310 286 11791ft 169kts
30-May-19 16:59 34.020353 -117.828620 286 13473ft 164kts
30-May-19 17:00 34.036169 -117.879903 285 15166ft 160kts
30-May-19 17:01 34.051596 -117.929958 285 16776ft 161kts
30-May-19 17:02 34.067524 -117.981666 285 18291ft 167kts
30-May-19 17:03 34.083541 -118.033801 285 19783ft 163kts
30-May-19 17:04 34.101414 -118.092407 287 19945ft 203kts
30-May-19 17:05 34.122110 -118.159706 287 19943ft 222kts
30-May-19 17:06 34.143967 -118.231069 287 19941ft 229kts
30-May-19 17:07 34.166215 -118.304015 287 19942ft 231kts
30-May-19 17:08 34.188450 -118.377135 287 19951ft 232kts
30-May-19 17:10 34.210658 -118.450372 287 19951ft 233kts
30-May-19 17:11 34.233501 -118.523683 289 19951ft 233kts
30-May-19 17:12 34.258854 -118.596038 290 19951ft 233kts
30-May-19 17:13 34.283781 -118.668451 290 19964ft 232kts
30-May-19 17:14 34.308522 -118.740780 290 19964ft 232kts
30-May-19 17:15 34.333214 -118.813176 290 19964ft 232kts
30-May-19 17:16 34.355447 -118.885671 274 19963ft 224kts
30-May-19 17:17 34.350789 -118.959764 265 19964ft 219kts
30-May-19 17:18 34.345351 -119.033254 265 19963ft 218kts
30-May-19 17:19 34.339901 -119.106673 265 19957ft 218kts
30-May-19 17:20 34.334442 -119.179699 265 19957ft 218kts
30-May-19 17:21 34.328921 -119.252938 264 19957ft 218kts
30-May-19 17:22 34.323353 -119.326135 265 19952ft 218kts
30-May-19 17:23 34.317783 -119.399334 266 19950ft 218kts
30-May-19 17:24 34.345877 -119.462257 298 19955ft 221kts
30-May-19 17:25 34.374948 -119.521661 298 19952ft 221kts
30-May-19 17:26 34.408089 -119.584340 299 19950ft 221kts
30-May-19 17:27 34.441875 -119.646827 299 19950ft 221kts
30-May-19 17:28 34.475710 -119.709230 299 19949ft 221kts
30-May-19 17:29 34.508248 -119.772603 286 19951ft 219kts
30-May-19 17:30 34.514467 -119.845775 274 19954ft 217kts
30-May-19 17:30 34.518609 -119.906506 274 19954ft 217kts
30-May-19 17:32 34.524487 -119.991845 273 19961ft 217kts
30-May-19 17:33 34.529398 -120.064967 274 19982ft 218kts
30-May-19 17:33 34.557106 -120.113245 324 19991ft 228kts
30-May-19 17:34 34.604463 -120.163242 314 19979ft 227kts
30-May-19 17:36 34.666097 -120.225024 317 18272ft 262kts
30-May-19 17:36 34.712497 -120.271091 317 16608ft 256kts
30-May-19 17:37 34.736895 -120.343724 264 14628ft 244kts
30-May-19 17:38 34.730946 -120.425880 263 12629ft 243kts
30-May-19 17:39 34.726499 -120.507769 284 10614ft 244kts
30-May-19 17:40 34.779381 -120.556144 332 9033ft 232kts
30-May-19 17:41 34.835718 -120.570559 32 8037ft 233kts
30-May-19 17:42 34.879128 -120.511023 57 5842ft 240kts
30-May-19 17:43 34.859718 -120.442041 132 3356ft 232kts
30-May-19 17:44 34.863531 -120.405689 297 1760ft 187kts
30-May-19 17:45 34.884400 -120.435981 311 582ft 93kts
30-May-19 17:46 34.897172 -120.450326 2 264ft 15kts
30-May-19 17:47 34.898049 -120.450294 1 264ft 7kts
30-May-19 17:48 34.900696 -120.451728 130 264ft 3kts

Navigation Log

Ident Type
Flight plan parsing failed, navigation log unavailable